sensor_id;sensor_type;location;lat;lon;timestamp;P1;durP1;ratioP1;P2;durP2;ratioP2
17363;SDS011;8799;43.594;13.526;2023-11-19T00:00:22;5.60;;;2.60;;
17363;SDS011;8799;43.594;13.526;2023-11-19T00:02:50;3.93;;;2.23;;
17363;SDS011;8799;43.594;13.526;2023-11-19T00:05:18;4.83;;;2.50;;
17363;SDS011;8799;43.594;13.526;2023-11-19T00:07:45;5.33;;;2.50;;
17363;SDS011;8799;43.594;13.526;2023-11-19T00:10:13;7.80;;;2.50;;
17363;SDS011;8799;43.594;13.526;2023-11-19T00:12:44;4.93;;;2.30;;
17363;SDS011;8799;43.594;13.526;2023-11-19T00:15:14;7.77;;;2.60;;
17363;SDS011;8799;43.594;13.526;2023-11-19T00:17:44;5.67;;;2.50;;
17363;SDS011;8799;43.594;13.526;2023-11-19T00:20:11;4.73;;;2.00;;
17363;SDS011;8799;43.594;13.526;2023-11-19T00:22:39;5.70;;;2.40;;
17363;SDS011;8799;43.594;13.526;2023-11-19T00:25:08;4.00;;;2.27;;
17363;SDS011;8799;43.594;13.526;2023-11-19T00:27:36;7.07;;;2.37;;
17363;SDS011;8799;43.594;13.526;2023-11-19T00:30:04;3.83;;;2.17;;
17363;SDS011;8799;43.594;13.526;2023-11-19T00:32:35;4.13;;;2.33;;
17363;SDS011;8799;43.594;13.526;2023-11-19T00:35:04;4.00;;;2.13;;
17363;SDS011;8799;43.594;13.526;2023-11-19T00:37:32;7.20;;;2.70;;
17363;SDS011;8799;43.594;13.526;2023-11-19T00:40:00;4.83;;;2.37;;
17363;SDS011;8799;43.594;13.526;2023-11-19T00:42:30;3.33;;;2.07;;
17363;SDS011;8799;43.594;13.526;2023-11-19T00:44:58;5.03;;;2.30;;
17363;SDS011;8799;43.594;13.526;2023-11-19T00:47:27;4.67;;;2.60;;
17363;SDS011;8799;43.594;13.526;2023-11-19T00:49:57;4.90;;;2.70;;
17363;SDS011;8799;43.594;13.526;2023-11-19T00:52:26;4.80;;;2.30;;
17363;SDS011;8799;43.594;13.526;2023-11-19T00:54:54;4.57;;;2.57;;
17363;SDS011;8799;43.594;13.526;2023-11-19T00:57:22;5.20;;;2.40;;
17363;SDS011;8799;43.594;13.526;2023-11-19T00:59:51;5.00;;;1.90;;
17363;SDS011;8799;43.594;13.526;2023-11-19T01:02:19;3.63;;;2.03;;
17363;SDS011;8799;43.594;13.526;2023-11-19T01:04:47;5.07;;;2.33;;
17363;SDS011;8799;43.594;13.526;2023-11-19T01:07:16;5.27;;;2.40;;
17363;SDS011;8799;43.594;13.526;2023-11-19T01:09:44;4.43;;;2.40;;
17363;SDS011;8799;43.594;13.526;2023-11-19T01:12:12;4.67;;;2.10;;
17363;SDS011;8799;43.594;13.526;2023-11-19T01:14:40;3.60;;;1.83;;
17363;SDS011;8799;43.594;13.526;2023-11-19T01:17:07;6.07;;;2.10;;
17363;SDS011;8799;43.594;13.526;2023-11-19T01:19:35;3.40;;;2.03;;
17363;SDS011;8799;43.594;13.526;2023-11-19T01:22:02;5.77;;;2.40;;
17363;SDS011;8799;43.594;13.526;2023-11-19T01:24:32;5.33;;;2.17;;
17363;SDS011;8799;43.594;13.526;2023-11-19T01:26:59;3.70;;;2.50;;
17363;SDS011;8799;43.594;13.526;2023-11-19T01:29:27;4.70;;;2.17;;
17363;SDS011;8799;43.594;13.526;2023-11-19T01:31:54;5.03;;;2.30;;
17363;SDS011;8799;43.594;13.526;2023-11-19T01:34:22;2.67;;;1.90;;
17363;SDS011;8799;43.594;13.526;2023-11-19T01:36:50;4.30;;;2.07;;
17363;SDS011;8799;43.594;13.526;2023-11-19T01:39:18;4.17;;;2.23;;
17363;SDS011;8799;43.594;13.526;2023-11-19T01:41:47;3.17;;;1.87;;
17363;SDS011;8799;43.594;13.526;2023-11-19T01:44:14;3.90;;;2.10;;
17363;SDS011;8799;43.594;13.526;2023-11-19T01:46:42;4.27;;;2.00;;
17363;SDS011;8799;43.594;13.526;2023-11-19T01:49:12;4.50;;;1.80;;
17363;SDS011;8799;43.594;13.526;2023-11-19T01:51:41;3.80;;;2.13;;
17363;SDS011;8799;43.594;13.526;2023-11-19T01:54:10;3.47;;;2.00;;
17363;SDS011;8799;43.594;13.526;2023-11-19T01:56:38;3.53;;;1.80;;
17363;SDS011;8799;43.594;13.526;2023-11-19T01:59:08;4.33;;;1.70;;
17363;SDS011;8799;43.594;13.526;2023-11-19T02:01:37;2.93;;;1.93;;
17363;SDS011;8799;43.594;13.526;2023-11-19T02:04:05;2.53;;;1.77;;
17363;SDS011;8799;43.594;13.526;2023-11-19T02:06:37;3.73;;;2.07;;
17363;SDS011;8799;43.594;13.526;2023-11-19T02:09:05;3.20;;;1.87;;
17363;SDS011;8799;43.594;13.526;2023-11-19T02:11:34;3.30;;;1.63;;
17363;SDS011;8799;43.594;13.526;2023-11-19T02:14:02;4.30;;;2.17;;
17363;SDS011;8799;43.594;13.526;2023-11-19T02:16:31;3.33;;;2.13;;
17363;SDS011;8799;43.594;13.526;2023-11-19T02:18:59;4.13;;;2.10;;
17363;SDS011;8799;43.594;13.526;2023-11-19T02:21:27;3.57;;;2.00;;
17363;SDS011;8799;43.594;13.526;2023-11-19T02:23:54;4.63;;;2.00;;
17363;SDS011;8799;43.594;13.526;2023-11-19T02:26:24;4.83;;;1.80;;
17363;SDS011;8799;43.594;13.526;2023-11-19T02:28:54;2.97;;;1.90;;
17363;SDS011;8799;43.594;13.526;2023-11-19T02:31:22;4.03;;;2.03;;
17363;SDS011;8799;43.594;13.526;2023-11-19T02:33:50;4.63;;;2.07;;
17363;SDS011;8799;43.594;13.526;2023-11-19T02:36:18;3.17;;;1.80;;
17363;SDS011;8799;43.594;13.526;2023-11-19T02:38:46;4.27;;;2.00;;
17363;SDS011;8799;43.594;13.526;2023-11-19T02:41:14;4.73;;;2.10;;
17363;SDS011;8799;43.594;13.526;2023-11-19T02:43:42;2.90;;;1.80;;
17363;SDS011;8799;43.594;13.526;2023-11-19T02:46:11;3.83;;;2.30;;
17363;SDS011;8799;43.594;13.526;2023-11-19T02:48:39;4.70;;;2.00;;
17363;SDS011;8799;43.594;13.526;2023-11-19T02:51:07;2.97;;;1.93;;
17363;SDS011;8799;43.594;13.526;2023-11-19T02:53:35;4.43;;;2.03;;
17363;SDS011;8799;43.594;13.526;2023-11-19T02:56:05;2.30;;;1.83;;
17363;SDS011;8799;43.594;13.526;2023-11-19T02:58:40;3.17;;;1.93;;
17363;SDS011;8799;43.594;13.526;2023-11-19T03:01:08;4.60;;;2.23;;
17363;SDS011;8799;43.594;13.526;2023-11-19T03:03:45;5.83;;;2.20;;
17363;SDS011;8799;43.594;13.526;2023-11-19T03:06:19;2.60;;;1.77;;
17363;SDS011;8799;43.594;13.526;2023-11-19T03:08:46;3.13;;;2.10;;
17363;SDS011;8799;43.594;13.526;2023-11-19T03:11:15;4.03;;;1.63;;
17363;SDS011;8799;43.594;13.526;2023-11-19T03:13:43;3.17;;;1.77;;
17363;SDS011;8799;43.594;13.526;2023-11-19T03:16:11;5.13;;;1.83;;
17363;SDS011;8799;43.594;13.526;2023-11-19T03:18:40;2.47;;;1.67;;
17363;SDS011;8799;43.594;13.526;2023-11-19T03:21:09;3.47;;;1.80;;
17363;SDS011;8799;43.594;13.526;2023-11-19T03:23:36;2.47;;;1.50;;
17363;SDS011;8799;43.594;13.526;2023-11-19T03:26:05;2.50;;;1.70;;
17363;SDS011;8799;43.594;13.526;2023-11-19T03:28:33;2.30;;;1.57;;
17363;SDS011;8799;43.594;13.526;2023-11-19T03:31:01;4.07;;;1.80;;
17363;SDS011;8799;43.594;13.526;2023-11-19T03:33:33;3.00;;;1.80;;
17363;SDS011;8799;43.594;13.526;2023-11-19T03:36:01;2.53;;;1.50;;
17363;SDS011;8799;43.594;13.526;2023-11-19T03:38:31;3.90;;;1.87;;
17363;SDS011;8799;43.594;13.526;2023-11-19T03:41:00;3.07;;;1.97;;
17363;SDS011;8799;43.594;13.526;2023-11-19T03:43:30;2.77;;;1.50;;
17363;SDS011;8799;43.594;13.526;2023-11-19T03:45:58;2.67;;;1.77;;
17363;SDS011;8799;43.594;13.526;2023-11-19T03:48:26;3.93;;;1.77;;
17363;SDS011;8799;43.594;13.526;2023-11-19T03:50:53;5.60;;;2.10;;
17363;SDS011;8799;43.594;13.526;2023-11-19T03:53:21;3.07;;;1.67;;
17363;SDS011;8799;43.594;13.526;2023-11-19T03:55:51;2.23;;;1.60;;
17363;SDS011;8799;43.594;13.526;2023-11-19T03:58:19;2.67;;;1.60;;
17363;SDS011;8799;43.594;13.526;2023-11-19T04:00:48;3.00;;;1.60;;
17363;SDS011;8799;43.594;13.526;2023-11-19T04:03:16;2.63;;;1.73;;
17363;SDS011;8799;43.594;13.526;2023-11-19T04:05:44;1.93;;;1.30;;
17363;SDS011;8799;43.594;13.526;2023-11-19T04:08:12;1.77;;;1.63;;
17363;SDS011;8799;43.594;13.526;2023-11-19T04:10:40;2.50;;;1.43;;
17363;SDS011;8799;43.594;13.526;2023-11-19T04:13:10;3.97;;;1.87;;
17363;SDS011;8799;43.594;13.526;2023-11-19T04:15:37;2.73;;;1.50;;
17363;SDS011;8799;43.594;13.526;2023-11-19T04:18:05;2.90;;;1.60;;
17363;SDS011;8799;43.594;13.526;2023-11-19T04:20:34;2.57;;;1.43;;
17363;SDS011;8799;43.594;13.526;2023-11-19T04:23:02;2.80;;;1.53;;
17363;SDS011;8799;43.594;13.526;2023-11-19T04:25:30;2.87;;;1.77;;
17363;SDS011;8799;43.594;13.526;2023-11-19T04:27:58;2.00;;;1.10;;
17363;SDS011;8799;43.594;13.526;2023-11-19T04:30:28;3.83;;;2.00;;
17363;SDS011;8799;43.594;13.526;2023-11-19T04:32:56;2.30;;;1.47;;
17363;SDS011;8799;43.594;13.526;2023-11-19T04:35:24;2.70;;;1.60;;
17363;SDS011;8799;43.594;13.526;2023-11-19T04:37:52;3.50;;;1.37;;
17363;SDS011;8799;43.594;13.526;2023-11-19T04:40:22;2.63;;;1.60;;
17363;SDS011;8799;43.594;13.526;2023-11-19T04:42:50;6.47;;;1.93;;
17363;SDS011;8799;43.594;13.526;2023-11-19T04:45:18;1.83;;;1.30;;
17363;SDS011;8799;43.594;13.526;2023-11-19T04:47:47;3.17;;;1.50;;
17363;SDS011;8799;43.594;13.526;2023-11-19T04:50:15;1.73;;;1.37;;
17363;SDS011;8799;43.594;13.526;2023-11-19T04:52:46;1.50;;;1.30;;
17363;SDS011;8799;43.594;13.526;2023-11-19T04:55:14;2.27;;;1.43;;
17363;SDS011;8799;43.594;13.526;2023-11-19T04:57:43;2.30;;;1.50;;
17363;SDS011;8799;43.594;13.526;2023-11-19T05:00:11;2.13;;;1.33;;
17363;SDS011;8799;43.594;13.526;2023-11-19T05:02:38;3.00;;;1.50;;
17363;SDS011;8799;43.594;13.526;2023-11-19T05:05:07;2.43;;;1.53;;
17363;SDS011;8799;43.594;13.526;2023-11-19T05:07:36;1.87;;;1.43;;
17363;SDS011;8799;43.594;13.526;2023-11-19T05:10:05;2.33;;;1.63;;
17363;SDS011;8799;43.594;13.526;2023-11-19T05:12:33;2.47;;;1.40;;
17363;SDS011;8799;43.594;13.526;2023-11-19T05:15:01;3.30;;;1.30;;
17363;SDS011;8799;43.594;13.526;2023-11-19T05:17:29;2.37;;;1.40;;
17363;SDS011;8799;43.594;13.526;2023-11-19T05:19:57;3.23;;;1.70;;
17363;SDS011;8799;43.594;13.526;2023-11-19T05:22:29;2.20;;;1.30;;
17363;SDS011;8799;43.594;13.526;2023-11-19T05:24:58;1.90;;;1.30;;
17363;SDS011;8799;43.594;13.526;2023-11-19T05:27:25;1.73;;;1.40;;
17363;SDS011;8799;43.594;13.526;2023-11-19T05:29:53;5.67;;;1.70;;
17363;SDS011;8799;43.594;13.526;2023-11-19T05:32:21;3.90;;;1.80;;
17363;SDS011;8799;43.594;13.526;2023-11-19T05:34:49;2.10;;;1.30;;
17363;SDS011;8799;43.594;13.526;2023-11-19T05:37:16;2.23;;;1.40;;
17363;SDS011;8799;43.594;13.526;2023-11-19T05:39:46;3.13;;;1.60;;
17363;SDS011;8799;43.594;13.526;2023-11-19T05:42:14;3.10;;;1.47;;
17363;SDS011;8799;43.594;13.526;2023-11-19T05:44:42;2.20;;;1.50;;
17363;SDS011;8799;43.594;13.526;2023-11-19T05:47:09;4.80;;;1.63;;
17363;SDS011;8799;43.594;13.526;2023-11-19T05:49:37;1.60;;;1.50;;
17363;SDS011;8799;43.594;13.526;2023-11-19T05:52:05;2.27;;;1.40;;
17363;SDS011;8799;43.594;13.526;2023-11-19T05:54:34;2.40;;;1.47;;
17363;SDS011;8799;43.594;13.526;2023-11-19T05:57:05;1.23;;;1.13;;
17363;SDS011;8799;43.594;13.526;2023-11-19T05:59:35;1.80;;;1.30;;
17363;SDS011;8799;43.594;13.526;2023-11-19T06:02:03;2.33;;;1.30;;
17363;SDS011;8799;43.594;13.526;2023-11-19T06:04:32;1.73;;;1.10;;
17363;SDS011;8799;43.594;13.526;2023-11-19T06:07:01;3.57;;;1.43;;
17363;SDS011;8799;43.594;13.526;2023-11-19T06:09:29;3.60;;;1.50;;
17363;SDS011;8799;43.594;13.526;2023-11-19T06:11:59;1.10;;;1.00;;
17363;SDS011;8799;43.594;13.526;2023-11-19T06:14:28;2.37;;;1.33;;
17363;SDS011;8799;43.594;13.526;2023-11-19T06:16:56;2.07;;;1.30;;
17363;SDS011;8799;43.594;13.526;2023-11-19T06:19:24;2.43;;;1.30;;
17363;SDS011;8799;43.594;13.526;2023-11-19T06:21:52;3.37;;;1.63;;
17363;SDS011;8799;43.594;13.526;2023-11-19T06:24:19;4.13;;;1.40;;
17363;SDS011;8799;43.594;13.526;2023-11-19T06:26:47;2.63;;;1.53;;
17363;SDS011;8799;43.594;13.526;2023-11-19T06:29:15;1.83;;;1.20;;
17363;SDS011;8799;43.594;13.526;2023-11-19T06:31:46;1.47;;;1.20;;
17363;SDS011;8799;43.594;13.526;2023-11-19T06:34:14;3.27;;;1.23;;
17363;SDS011;8799;43.594;13.526;2023-11-19T06:36:42;1.70;;;1.33;;
17363;SDS011;8799;43.594;13.526;2023-11-19T06:39:10;1.53;;;1.17;;
17363;SDS011;8799;43.594;13.526;2023-11-19T06:41:44;2.90;;;1.57;;
17363;SDS011;8799;43.594;13.526;2023-11-19T06:44:12;1.93;;;1.20;;
17363;SDS011;8799;43.594;13.526;2023-11-19T06:46:40;2.57;;;1.17;;
17363;SDS011;8799;43.594;13.526;2023-11-19T06:49:09;3.30;;;1.53;;
17363;SDS011;8799;43.594;13.526;2023-11-19T06:51:41;2.53;;;1.50;;
17363;SDS011;8799;43.594;13.526;2023-11-19T06:54:09;5.10;;;1.43;;
17363;SDS011;8799;43.594;13.526;2023-11-19T06:56:37;2.40;;;1.20;;
17363;SDS011;8799;43.594;13.526;2023-11-19T06:59:05;1.77;;;1.00;;
17363;SDS011;8799;43.594;13.526;2023-11-19T07:01:36;1.70;;;1.30;;
17363;SDS011;8799;43.594;13.526;2023-11-19T07:04:04;1.40;;;1.07;;
17363;SDS011;8799;43.594;13.526;2023-11-19T07:06:36;2.37;;;1.63;;
17363;SDS011;8799;43.594;13.526;2023-11-19T07:09:04;1.90;;;1.63;;
17363;SDS011;8799;43.594;13.526;2023-11-19T07:11:36;1.23;;;1.13;;
17363;SDS011;8799;43.594;13.526;2023-11-19T07:14:05;2.40;;;1.50;;
17363;SDS011;8799;43.594;13.526;2023-11-19T07:16:33;1.93;;;1.27;;
17363;SDS011;8799;43.594;13.526;2023-11-19T07:19:02;2.03;;;1.23;;
17363;SDS011;8799;43.594;13.526;2023-11-19T07:21:30;2.03;;;1.30;;
17363;SDS011;8799;43.594;13.526;2023-11-19T07:24:00;1.20;;;1.10;;
17363;SDS011;8799;43.594;13.526;2023-11-19T07:26:27;5.77;;;1.63;;
17363;SDS011;8799;43.594;13.526;2023-11-19T07:28:55;2.07;;;1.40;;
17363;SDS011;8799;43.594;13.526;2023-11-19T07:31:24;3.60;;;1.60;;
17363;SDS011;8799;43.594;13.526;2023-11-19T07:33:53;1.97;;;1.50;;
17363;SDS011;8799;43.594;13.526;2023-11-19T07:36:21;1.93;;;1.17;;
17363;SDS011;8799;43.594;13.526;2023-11-19T07:38:49;2.93;;;1.47;;
17363;SDS011;8799;43.594;13.526;2023-11-19T07:41:19;2.50;;;1.60;;
17363;SDS011;8799;43.594;13.526;2023-11-19T07:43:47;2.57;;;1.57;;
17363;SDS011;8799;43.594;13.526;2023-11-19T07:46:15;3.57;;;1.57;;
17363;SDS011;8799;43.594;13.526;2023-11-19T07:48:44;3.97;;;1.50;;
17363;SDS011;8799;43.594;13.526;2023-11-19T07:51:13;2.00;;;1.50;;
17363;SDS011;8799;43.594;13.526;2023-11-19T07:53:41;3.83;;;1.40;;
17363;SDS011;8799;43.594;13.526;2023-11-19T07:56:09;3.17;;;1.60;;
17363;SDS011;8799;43.594;13.526;2023-11-19T07:58:38;2.23;;;1.33;;
17363;SDS011;8799;43.594;13.526;2023-11-19T08:01:07;3.17;;;1.53;;
17363;SDS011;8799;43.594;13.526;2023-11-19T08:03:34;9.23;;;1.83;;
17363;SDS011;8799;43.594;13.526;2023-11-19T08:06:03;5.57;;;1.27;;
17363;SDS011;8799;43.594;13.526;2023-11-19T08:08:32;4.87;;;1.67;;
17363;SDS011;8799;43.594;13.526;2023-11-19T08:11:00;1.63;;;1.23;;
17363;SDS011;8799;43.594;13.526;2023-11-19T08:13:28;10.63;;;1.27;;
17363;SDS011;8799;43.594;13.526;2023-11-19T08:15:56;3.40;;;1.37;;
17363;SDS011;8799;43.594;13.526;2023-11-19T08:18:25;4.63;;;1.60;;
17363;SDS011;8799;43.594;13.526;2023-11-19T08:20:52;5.83;;;1.40;;
17363;SDS011;8799;43.594;13.526;2023-11-19T08:23:21;10.87;;;1.90;;
17363;SDS011;8799;43.594;13.526;2023-11-19T08:25:50;4.43;;;1.80;;
17363;SDS011;8799;43.594;13.526;2023-11-19T08:28:19;4.63;;;2.20;;
17363;SDS011;8799;43.594;13.526;2023-11-19T08:30:47;7.43;;;2.70;;
17363;SDS011;8799;43.594;13.526;2023-11-19T08:33:16;5.70;;;1.80;;
17363;SDS011;8799;43.594;13.526;2023-11-19T08:35:44;7.50;;;2.10;;
17363;SDS011;8799;43.594;13.526;2023-11-19T08:38:12;8.37;;;2.43;;
17363;SDS011;8799;43.594;13.526;2023-11-19T08:40:40;4.20;;;2.23;;
17363;SDS011;8799;43.594;13.526;2023-11-19T08:43:08;5.20;;;2.00;;
17363;SDS011;8799;43.594;13.526;2023-11-19T08:45:35;9.77;;;2.50;;
17363;SDS011;8799;43.594;13.526;2023-11-19T08:48:03;4.60;;;2.30;;
17363;SDS011;8799;43.594;13.526;2023-11-19T08:50:33;4.93;;;2.00;;
17363;SDS011;8799;43.594;13.526;2023-11-19T08:53:00;3.37;;;2.00;;
17363;SDS011;8799;43.594;13.526;2023-11-19T08:55:28;8.53;;;2.20;;
17363;SDS011;8799;43.594;13.526;2023-11-19T08:57:56;9.40;;;2.10;;
17363;SDS011;8799;43.594;13.526;2023-11-19T09:00:25;3.40;;;1.90;;
17363;SDS011;8799;43.594;13.526;2023-11-19T09:02:55;5.47;;;1.70;;
17363;SDS011;8799;43.594;13.526;2023-11-19T09:05:23;6.30;;;2.40;;
17363;SDS011;8799;43.594;13.526;2023-11-19T09:07:52;2.60;;;1.63;;
17363;SDS011;8799;43.594;13.526;2023-11-19T09:10:21;4.23;;;2.00;;
17363;SDS011;8799;43.594;13.526;2023-11-19T09:12:50;7.20;;;1.80;;
17363;SDS011;8799;43.594;13.526;2023-11-19T09:15:18;2.73;;;1.60;;
17363;SDS011;8799;43.594;13.526;2023-11-19T09:17:45;3.03;;;1.80;;
17363;SDS011;8799;43.594;13.526;2023-11-19T09:20:13;2.67;;;1.53;;
17363;SDS011;8799;43.594;13.526;2023-11-19T09:22:41;5.00;;;2.00;;
17363;SDS011;8799;43.594;13.526;2023-11-19T09:25:11;2.83;;;1.53;;
17363;SDS011;8799;43.594;13.526;2023-11-19T09:27:42;3.03;;;1.90;;
17363;SDS011;8799;43.594;13.526;2023-11-19T09:30:11;3.63;;;1.67;;
17363;SDS011;8799;43.594;13.526;2023-11-19T09:32:39;3.23;;;1.33;;
17363;SDS011;8799;43.594;13.526;2023-11-19T09:35:07;3.83;;;1.70;;
17363;SDS011;8799;43.594;13.526;2023-11-19T09:37:36;5.20;;;2.07;;
17363;SDS011;8799;43.594;13.526;2023-11-19T09:40:04;3.27;;;1.93;;
17363;SDS011;8799;43.594;13.526;2023-11-19T09:42:39;5.23;;;1.57;;
17363;SDS011;8799;43.594;13.526;2023-11-19T09:45:12;3.77;;;1.57;;
17363;SDS011;8799;43.594;13.526;2023-11-19T09:47:42;3.07;;;1.83;;
17363;SDS011;8799;43.594;13.526;2023-11-19T09:50:12;4.17;;;2.03;;
17363;SDS011;8799;43.594;13.526;2023-11-19T09:52:42;2.47;;;1.70;;
17363;SDS011;8799;43.594;13.526;2023-11-19T09:55:10;2.53;;;1.70;;
17363;SDS011;8799;43.594;13.526;2023-11-19T09:57:40;2.73;;;1.30;;
17363;SDS011;8799;43.594;13.526;2023-11-19T10:00:09;2.97;;;1.43;;
17363;SDS011;8799;43.594;13.526;2023-11-19T10:02:39;2.07;;;1.60;;
17363;SDS011;8799;43.594;13.526;2023-11-19T10:05:07;2.97;;;1.87;;
17363;SDS011;8799;43.594;13.526;2023-11-19T10:07:35;2.93;;;1.87;;
17363;SDS011;8799;43.594;13.526;2023-11-19T10:10:03;2.00;;;1.57;;
17363;SDS011;8799;43.594;13.526;2023-11-19T10:12:33;2.73;;;1.57;;
17363;SDS011;8799;43.594;13.526;2023-11-19T10:15:03;4.43;;;2.10;;
17363;SDS011;8799;43.594;13.526;2023-11-19T10:17:32;4.10;;;1.80;;
17363;SDS011;8799;43.594;13.526;2023-11-19T10:20:00;3.13;;;1.47;;
17363;SDS011;8799;43.594;13.526;2023-11-19T10:22:30;3.87;;;1.80;;
17363;SDS011;8799;43.594;13.526;2023-11-19T10:24:58;2.23;;;1.43;;
17363;SDS011;8799;43.594;13.526;2023-11-19T10:27:27;4.23;;;1.67;;
17363;SDS011;8799;43.594;13.526;2023-11-19T10:29:58;2.50;;;1.70;;
17363;SDS011;8799;43.594;13.526;2023-11-19T10:32:28;2.67;;;1.50;;
17363;SDS011;8799;43.594;13.526;2023-11-19T10:35:04;2.83;;;1.57;;
17363;SDS011;8799;43.594;13.526;2023-11-19T10:37:33;3.77;;;1.83;;
17363;SDS011;8799;43.594;13.526;2023-11-19T10:40:03;2.43;;;1.40;;
17363;SDS011;8799;43.594;13.526;2023-11-19T10:42:32;3.87;;;1.47;;
17363;SDS011;8799;43.594;13.526;2023-11-19T10:45:00;1.70;;;1.50;;
17363;SDS011;8799;43.594;13.526;2023-11-19T10:47:30;2.00;;;1.53;;
17363;SDS011;8799;43.594;13.526;2023-11-19T10:49:58;2.57;;;1.60;;
17363;SDS011;8799;43.594;13.526;2023-11-19T10:52:26;3.13;;;1.77;;
17363;SDS011;8799;43.594;13.526;2023-11-19T10:54:54;3.13;;;1.70;;
17363;SDS011;8799;43.594;13.526;2023-11-19T10:57:26;1.70;;;1.27;;
17363;SDS011;8799;43.594;13.526;2023-11-19T11:00:01;2.53;;;1.73;;
17363;SDS011;8799;43.594;13.526;2023-11-19T11:02:37;3.33;;;1.70;;
17363;SDS011;8799;43.594;13.526;2023-11-19T11:05:08;3.37;;;1.67;;
17363;SDS011;8799;43.594;13.526;2023-11-19T11:07:38;4.87;;;1.50;;
17363;SDS011;8799;43.594;13.526;2023-11-19T11:10:08;2.13;;;1.43;;
17363;SDS011;8799;43.594;13.526;2023-11-19T11:12:37;2.40;;;1.50;;
17363;SDS011;8799;43.594;13.526;2023-11-19T11:15:07;2.20;;;1.43;;
17363;SDS011;8799;43.594;13.526;2023-11-19T11:17:38;2.47;;;1.63;;
17363;SDS011;8799;43.594;13.526;2023-11-19T11:20:07;3.90;;;1.57;;
17363;SDS011;8799;43.594;13.526;2023-11-19T11:22:40;3.10;;;1.70;;
17363;SDS011;8799;43.594;13.526;2023-11-19T11:25:16;2.80;;;1.57;;
17363;SDS011;8799;43.594;13.526;2023-11-19T11:30:40;3.60;;;1.67;;
17363;SDS011;8799;43.594;13.526;2023-11-19T11:33:20;2.47;;;1.47;;
17363;SDS011;8799;43.594;13.526;2023-11-19T11:35:53;3.33;;;1.70;;
17363;SDS011;8799;43.594;13.526;2023-11-19T11:38:23;3.33;;;1.87;;
17363;SDS011;8799;43.594;13.526;2023-11-19T11:43:45;3.57;;;1.70;;
17363;SDS011;8799;43.594;13.526;2023-11-19T11:49:01;3.77;;;1.83;;
17363;SDS011;8799;43.594;13.526;2023-11-19T11:54:25;2.17;;;1.73;;
17363;SDS011;8799;43.594;13.526;2023-11-19T11:57:03;5.10;;;1.70;;
17363;SDS011;8799;43.594;13.526;2023-11-19T11:59:37;3.10;;;1.60;;
17363;SDS011;8799;43.594;13.526;2023-11-19T12:02:07;2.73;;;1.90;;
17363;SDS011;8799;43.594;13.526;2023-11-19T12:04:38;2.67;;;1.33;;
17363;SDS011;8799;43.594;13.526;2023-11-19T12:07:07;5.30;;;1.87;;
17363;SDS011;8799;43.594;13.526;2023-11-19T12:09:36;6.43;;;1.77;;
17363;SDS011;8799;43.594;13.526;2023-11-19T12:12:18;2.93;;;1.60;;
17363;SDS011;8799;43.594;13.526;2023-11-19T12:15:02;2.03;;;1.43;;
17363;SDS011;8799;43.594;13.526;2023-11-19T12:17:51;3.00;;;1.80;;
17363;SDS011;8799;43.594;13.526;2023-11-19T12:20:21;4.60;;;1.80;;
17363;SDS011;8799;43.594;13.526;2023-11-19T12:22:50;2.80;;;1.53;;
17363;SDS011;8799;43.594;13.526;2023-11-19T12:25:18;2.33;;;1.53;;
17363;SDS011;8799;43.594;13.526;2023-11-19T12:27:47;2.43;;;1.63;;
17363;SDS011;8799;43.594;13.526;2023-11-19T12:30:17;2.83;;;1.73;;
17363;SDS011;8799;43.594;13.526;2023-11-19T12:32:45;2.60;;;1.63;;
17363;SDS011;8799;43.594;13.526;2023-11-19T12:35:13;4.87;;;1.50;;
17363;SDS011;8799;43.594;13.526;2023-11-19T12:37:44;3.43;;;1.73;;
17363;SDS011;8799;43.594;13.526;2023-11-19T12:40:16;2.73;;;1.57;;
17363;SDS011;8799;43.594;13.526;2023-11-19T12:43:04;2.07;;;1.20;;
17363;SDS011;8799;43.594;13.526;2023-11-19T12:45:35;2.20;;;1.33;;
17363;SDS011;8799;43.594;13.526;2023-11-19T12:48:04;3.20;;;1.30;;
17363;SDS011;8799;43.594;13.526;2023-11-19T12:53:16;1.90;;;1.40;;
17363;SDS011;8799;43.594;13.526;2023-11-19T12:55:45;1.20;;;1.10;;
17363;SDS011;8799;43.594;13.526;2023-11-19T12:58:27;4.20;;;1.50;;
17363;SDS011;8799;43.594;13.526;2023-11-19T13:00:59;3.43;;;1.00;;
17363;SDS011;8799;43.594;13.526;2023-11-19T13:03:30;2.50;;;1.20;;
17363;SDS011;8799;43.594;13.526;2023-11-19T13:06:02;2.57;;;1.50;;
17363;SDS011;8799;43.594;13.526;2023-11-19T13:08:37;1.60;;;1.10;;
17363;SDS011;8799;43.594;13.526;2023-11-19T13:11:05;2.27;;;1.30;;
17363;SDS011;8799;43.594;13.526;2023-11-19T13:16:17;1.50;;;0.93;;
17363;SDS011;8799;43.594;13.526;2023-11-19T13:18:45;4.13;;;1.13;;
17363;SDS011;8799;43.594;13.526;2023-11-19T13:21:13;1.00;;;0.80;;
17363;SDS011;8799;43.594;13.526;2023-11-19T13:23:43;1.63;;;1.00;;
17363;SDS011;8799;43.594;13.526;2023-11-19T13:26:11;3.47;;;1.33;;
17363;SDS011;8799;43.594;13.526;2023-11-19T13:28:39;4.33;;;1.30;;
17363;SDS011;8799;43.594;13.526;2023-11-19T13:31:07;2.00;;;1.43;;
17363;SDS011;8799;43.594;13.526;2023-11-19T13:33:35;2.40;;;1.30;;
17363;SDS011;8799;43.594;13.526;2023-11-19T13:36:03;5.87;;;1.23;;
17363;SDS011;8799;43.594;13.526;2023-11-19T13:38:33;1.30;;;0.97;;
17363;SDS011;8799;43.594;13.526;2023-11-19T13:41:03;0.97;;;0.90;;
17363;SDS011;8799;43.594;13.526;2023-11-19T13:43:31;3.30;;;1.13;;
17363;SDS011;8799;43.594;13.526;2023-11-19T13:45:59;1.77;;;0.97;;
17363;SDS011;8799;43.594;13.526;2023-11-19T13:48:27;2.30;;;1.10;;
17363;SDS011;8799;43.594;13.526;2023-11-19T13:50:55;1.50;;;1.10;;
17363;SDS011;8799;43.594;13.526;2023-11-19T13:53:23;2.67;;;1.03;;
17363;SDS011;8799;43.594;13.526;2023-11-19T13:55:51;1.13;;;1.00;;
17363;SDS011;8799;43.594;13.526;2023-11-19T13:58:21;2.10;;;1.10;;
17363;SDS011;8799;43.594;13.526;2023-11-19T14:00:49;1.60;;;0.90;;
17363;SDS011;8799;43.594;13.526;2023-11-19T14:03:17;1.60;;;0.90;;
17363;SDS011;8799;43.594;13.526;2023-11-19T14:05:46;1.00;;;0.70;;
17363;SDS011;8799;43.594;13.526;2023-11-19T14:08:17;3.77;;;1.10;;
17363;SDS011;8799;43.594;13.526;2023-11-19T14:10:45;2.53;;;1.00;;
17363;SDS011;8799;43.594;13.526;2023-11-19T14:13:13;1.03;;;0.90;;
17363;SDS011;8799;43.594;13.526;2023-11-19T14:15:42;2.47;;;0.90;;
17363;SDS011;8799;43.594;13.526;2023-11-19T14:18:10;1.10;;;0.90;;
17363;SDS011;8799;43.594;13.526;2023-11-19T14:20:38;1.70;;;0.80;;
17363;SDS011;8799;43.594;13.526;2023-11-19T14:23:06;0.90;;;0.90;;
17363;SDS011;8799;43.594;13.526;2023-11-19T14:25:34;4.47;;;1.00;;
17363;SDS011;8799;43.594;13.526;2023-11-19T14:28:02;2.30;;;1.17;;
17363;SDS011;8799;43.594;13.526;2023-11-19T14:30:31;0.60;;;0.60;;
17363;SDS011;8799;43.594;13.526;2023-11-19T14:33:01;2.30;;;1.20;;
17363;SDS011;8799;43.594;13.526;2023-11-19T14:35:30;0.77;;;0.70;;
17363;SDS011;8799;43.594;13.526;2023-11-19T14:37:59;0.93;;;0.83;;
17363;SDS011;8799;43.594;13.526;2023-11-19T14:40:30;1.43;;;0.83;;
17363;SDS011;8799;43.594;13.526;2023-11-19T14:42:59;1.40;;;1.13;;
17363;SDS011;8799;43.594;13.526;2023-11-19T14:45:27;3.27;;;1.30;;
17363;SDS011;8799;43.594;13.526;2023-11-19T14:47:56;1.27;;;0.93;;
17363;SDS011;8799;43.594;13.526;2023-11-19T14:50:26;1.73;;;1.00;;
17363;SDS011;8799;43.594;13.526;2023-11-19T14:52:54;3.80;;;1.07;;
17363;SDS011;8799;43.594;13.526;2023-11-19T14:55:22;1.33;;;0.90;;
17363;SDS011;8799;43.594;13.526;2023-11-19T14:57:51;1.40;;;0.67;;
17363;SDS011;8799;43.594;13.526;2023-11-19T15:00:19;1.30;;;1.00;;
17363;SDS011;8799;43.594;13.526;2023-11-19T15:02:47;1.17;;;0.83;;
17363;SDS011;8799;43.594;13.526;2023-11-19T15:05:15;1.60;;;0.90;;
17363;SDS011;8799;43.594;13.526;2023-11-19T15:07:44;2.23;;;1.00;;
17363;SDS011;8799;43.594;13.526;2023-11-19T15:10:14;1.83;;;0.90;;
17363;SDS011;8799;43.594;13.526;2023-11-19T15:12:42;1.23;;;0.70;;
17363;SDS011;8799;43.594;13.526;2023-11-19T15:15:11;1.33;;;0.70;;